NCAR-RAP Real-Time Weather Data

Output produced by METARs form (17 December 2018  08:42 UTC)
found at http://weather.rap.ucar.edu/surface/
 
RJBB 170830Z 30021KT 9999 FEW025 SCT035 BKN080 11/02 Q1012 TEMPO 30025G36KT
 
RJBD 170800Z 35012KT 9999 FEW025 SCT035 BKN060 10/05 Q1011
 
RJBE 170800Z 28015KT 9999 FEW025 SCT050 10/01 Q1011
 
RJBT 170800Z 24004KT 200V310 9999 FEW007 SCT030 BKN035 07/07 Q1010
 
RJOA 170800Z 31006KT 9999 -SHRA FEW015 SCT020 BKN035 06/00 Q1013
 
RJOB 170800Z 27009KT 9999 FEW025 SCT070 07/M00 Q1012
 
RJOC 170800Z 28014G25KT 9999 -SHRA FEW020 SCT035 BKN050 09/01 Q1013
 
RJOH 170800Z 28018KT 9999 -SHRA FEW010 SCT025 BKN035 08/01 Q1013
 
RJOI 170755Z 30007KT 9999 BKN050 BKN070 11/M01 A2996 RMK SLP146 T01061006
 
RJOK 170800Z 27012KT 9999 FEW030 SCT040 11/M02 Q1012
 
RJOM 170800Z 28021KT 9999 FEW040 SCT070 11/01 Q1014
 
RJOO 170800Z 29008KT 240V320 9999 FEW025 11/M01 Q1010 RMK 1CU025 A2985
 
RJOR 170800Z 24013KT 9999 FEW020 SCT040 08/03 Q1011
 
RJOT 170800Z 25008KT 9999 -SHRA FEW015 SCT025 BKN050 07/05 Q1012
 
RJOW 170800Z 29018KT 9999 FEW025 SCT045 10/M00 Q1014
 
RJOY 170800Z 25008KT 220V280 9999 FEW025 BKN070 11/03 Q1011
 
RJDC 170800Z 28008KT 250V320 9999 FEW030 BKN045 BKN/// 10/03 Q1015
 
RJDT 170800Z 29013G25KT 250V320 9999 FEW035 SCT045 09/M02 Q1016
 
RJFE 170800Z 32011KT 280V360 9999 FEW035 SCT045 BKN060 10/00 Q1018
 
RJFF 170830Z 31013KT 9999 FEW030 SCT045 BKN070 10/M00 Q1016 NOSIG RMK 1CU030 3SC045 6AC070 A3003
 
RJFG 170800Z 32014KT 9999 -RA FEW025 SCT040 BKN/// 12/06 Q1016
 
RJFK 170800Z 33012KT 9999 FEW035 08/01 Q1016 RMK 2CU035 A3002 VOLCANIC ASH CLOUD S
 
RJFO 170800Z 29005KT 250V350 9999 FEW025 SCT/// 10/00 Q1015
 
RJFR 170800Z 27011KT 250V020 9999 FEW030 BKN040 BKN070 11/M00 Q1015
 
RJFS 170800Z 28014KT 9999 FEW035 BKN045 10/02 Q1017
 
RJFT 170800Z 27005KT 240V300 9999 FEW040 SCT060 09/M00 Q1017
 
RJFU 170800Z 31016KT 9999 FEW040 SCT060 BKN070 11/02 Q1017
 
RJFM 170800Z 30011KT 260V340 9999 FEW040 12/01 Q1015
 
 
RJFG 170800Z 32014KT 9999 -RA FEW025 SCT040 BKN/// 12/06 Q1016